KSAR/SAR METAR and TAF weather

Enter ICAO airport designator
Station Type Date Time Source
KSAR METAR 2018/12/13 06:55 UTC NOAA

KSAR 130655Z AUTO 17007KT 10SM BKN045 05/04 A2997 RMK AO2 T00470042


Station Type Date Time Source
KSAR Decoded METAR 2018/12/13 06:55 UTC NOAA

Sparta, Sparta Community-Hunter Field Airport, IL, United States (KSAR) 38-08-56N 089-41-55W
Dec 13, 2018 - 01:55 AM EST / 2018.12.13 0655 UTC
Wind: from the S (170 degrees) at 8 MPH (7 KT):0
Visibility: 10 mile(s):0
Sky conditions: mostly cloudy
Temperature: 40.5 F (4.7 C)
Dew Point: 39.6 F (4.2 C)
Relative Humidity: 96%
Pressure (altimeter): 29.97 in. Hg (1014 hPa)
ob: KSAR 130655Z AUTO 17007KT 10SM BKN045 05/04 A2997 RMK AO2 T00470042
cycle: 7

Station Type Date Time Source
KSAR TAF UTC NOAA

Error!


Example: see airport list